Vladimir Holes

Recruteur - Viktoria Plzen
20 Nov 2027
Samedi
Processus

Personnalité

Adaptabilité (4) Ambition (10) Controverse (11) Loyauté (4) Pression (3) Professionnalisme (2) Sportivité (2) Tempérament (14)

Profil

Style d'entraînement Démocratique
Diplôme Continental C
Détermination 6
Gestion des joueurs 5
Motivation 5
Discipline 11
Satisfaction professionnelle
90%
Fatigue
0%
Rôle Recruteur
Salaire 47.1K p/s
Contrat 14.03.2029

Performance

Comportement Bon
Efficacité de l'entraînement
28%
Développement des joueurs
50%
Prévention des blessures
35%
Mise en place tactique
20%

Événements récents

A participé à une réunion de recrutement maintenant
A participé à une réunion de recrutement maintenant
A participé à une réunion de recrutement maintenant
A participé à une réunion de recrutement 7j
A participé à une réunion de recrutement 7j
A participé à une réunion de recrutement 7j
A participé à une réunion de recrutement 7j
A participé à une réunion de recrutement 7j

Suivi en cours

186
Joueur Club Statut Capacité Confiance Observé Dernière observation Dernier vote
Petr Juliš Slovan Liberec Actif 105 / 107 48% 1 06.06.2027 -
Godwin Oham Warri Wolves Actif 91 / 86 40% 1 31.05.2027 -
Konta Ismaily Actif 103 / 96 40% 1 31.05.2027 -
Manu Rodríguez Gijón Actif 99 / 113 40% 2 30.05.2027 -
Stevan Manuel Benfica Actif 87 / 113 40% 4 30.05.2027 -
Abraham Paintsil Hasaacas Actif 95 / 94 40% 3 29.05.2027 -
Jonathan De Irastorza Levante Actif 110 / 129 40% 1 29.05.2027 -
Oumar Camara Vitoria Guimaraes Actif 128 / 121 40% 5 28.05.2027 -
Leandro Martins Benfica Actif 86 / 99 40% 2 28.05.2027 -
Gorka Gorosabel Real Sociedad Actif 104 / 110 40% 2 27.05.2027 -
Victor Ehibe Gazelle Garoua Actif 84 / 96 40% 5 25.05.2027 -
Mfundo Vilakazi Kaizer Chiefs Actif 111 / 129 40% 4 25.05.2027 -
Tiago Freitas Benfica Actif 107 / 121 40% 4 23.05.2027 -
Kirill Glebov CSKA Moscow Actif 122 / 129 40% 3 22.05.2027 -
João Abreu Porto Actif 83 / 104 40% 1 21.05.2027 -
Bakary Haïdara Hearts of Oak Actif 117 / 107 40% 2 20.05.2027 -
Leonardo Mendicino Bari Actif 124 / 122 40% 2 20.05.2027 -
Pietro Reggiori Pro Patria Actif 96 / 97 40% 2 19.05.2027 -
Martim Cunha Porto Actif 102 / 106 40% 4 16.05.2027 -
Sidiki Chérif Coventry City Actif 135 / 127 40% 2 12.05.2027 Plus d'infos
Franz-Ethan Meichtry Genoa Actif 127 / 128 40% 1 12.05.2027 -
Mandla Mokotjo SuperSport United Actif 99 / 92 40% 1 12.05.2027 -
Sam Curtis Swindon Town Actif 97 / 104 40% 3 09.05.2027 -
Luca Lipani Frosinone Actif 108 / 128 40% 1 08.05.2027 -
Jacob Wright Norwich City Actif 131 / 128 40% 1 08.05.2027 -
Lander Astiazarán Real Sociedad Actif 107 / 106 40% 1 04.05.2027 -
Paulo Iago Sporting CP Actif 100 / 103 40% 2 03.05.2027 -
Tommaso Cecotti Carpi Actif 91 / 102 40% 1 03.05.2027 -
Taras Mykhavko Dynamo Kyiv Actif 133 / 130 40% 1 03.05.2027 -
Dylan Lawlor Cardiff City Actif 124 / 126 40% 3 02.05.2027 -
Jofre Torrents Ajax Actif 134 / 131 40% 3 28.04.2027 -
Maeson King Blackpool Actif 116 / 114 40% 1 28.04.2027 -
Caleb Yirenkyi Coventry City Actif 132 / 141 40% 5 27.04.2027 -
Nino Marcelli Slovan Bratislava Actif 111 / 122 40% 2 27.04.2027 -
Alex Amorim Genoa Actif 142 / 130 40% 1 22.04.2027 -
Alex Verón Villarreal Actif 119 / 120 40% 1 22.04.2027 -
Benjamin Tsivanyo Aduana Stars Actif 85 / 92 40% 2 20.04.2027 -
Riley Owen Wycombe Wanderers Actif 96 / 102 40% 2 18.04.2027 -
Andrey Ivlev Nizhniy Novgorod Actif 99 / 121 40% 4 17.04.2027 -
Shea Lacey Millwall Actif 116 / 127 40% 2 16.04.2027 -
Bradley Zwane SuperSport United Actif 121 / 112 40% 3 12.04.2027 -
André Miranda Porto Actif 97 / 102 40% 1 12.04.2027 -
Jake Batty Bristol Rovers Actif 92 / 107 40% 2 11.04.2027 -
Gladson Sulemana Liberty Professionals Actif 88 / 98 40% 1 10.04.2027 -
Sindre Walle Egeli Nottingham Forest Actif 137 / 138 40% 1 06.04.2027 -
Christos Mouzakitis Hull City Actif 136 / 133 40% 6 31.03.2027 -
Mattia Rutigliano Pro Vercelli Actif 107 / 105 40% 1 30.03.2027 -
Oscar Schwartau Norwich City Actif 112 / 132 40% 1 27.03.2027 -
Joel McGregor Swindon Town Actif 92 / 96 40% 1 25.03.2027 -
Daniel Kelly Derby County Actif 108 / 122 40% 1 22.03.2027 -
Daniel Awuni Aduana Stars Actif 83 / 98 40% 2 21.03.2027 -
Riquelme Thompson-Jones Shrewsbury Town Actif 93 / 112 40% 1 13.03.2027 -
Zack Nelson Walsall Actif 93 / 109 40% 2 11.03.2027 -
Kervin Andrade Maccabi Tel Aviv Actif 118 / 124 40% 1 11.03.2027 -
Monty Batlhabane Polokwane City Actif 82 / 100 40% 2 10.03.2027 -
Simone Kosijer Triestina Actif 82 / 98 40% 1 09.03.2027 -
Othmane Maamma Watford Actif 115 / 131 40% 2 08.03.2027 -
Enzo Cardozo Virtus Entella Actif 119 / 113 40% 1 04.03.2027 -
Filip Mielke Podbrezova Actif 91 / 107 40% 1 03.03.2027 -
Zoltan Bese Haladas Actif 101 / 115 40% 1 02.03.2027 -
Claudio Martey Pianese Actif 77 / 87 40% 1 01.03.2027 -
Asanele Bonani Chippa United Actif 99 / 99 40% 2 25.02.2027 -
Saïd El Mala Köln Actif 146 / 142 40% 2 22.02.2027 -
Araphat Mohammed Medeama Actif 111 / 102 40% 1 22.02.2027 -
Alphadjo Cissé Pisa Actif 113 / 124 40% 1 21.02.2027 -
Ilja Ishkov Ural Actif 112 / 111 40% 1 18.02.2027 -
Nestory Irankunda Watford Actif 117 / 123 40% 1 16.02.2027 -
Simphiwe Selepe Orlando Pirates Actif 105 / 125 40% 2 08.02.2027 -
Ognjen Bondžulić Mladost Lucani Actif 102 / 106 40% 1 06.02.2027 -
Isaiah Jones Luton Town Actif 116 / 124 40% 1 26.01.2027 -
Noah Sadiki Sunderland Actif 141 / 147 40% 1 18.01.2027 -
Oliver Skipp Leicester City Actif 143 / 131 40% 1 31.12.2026 -
Tomáš Suslov Hellas Verona Actif 131 / 133 40% 2 30.12.2026 -
Ali Ahmed Norwich City Actif 123 / 124 40% 1 30.12.2026 -
Ammar Ramadan DAC Dunajska Streda Actif 135 / 120 40% 3 28.12.2026 -
Karlan Grant West Bromwich Albion Actif 124 / 115 40% 1 28.12.2026 -
Yousef Salech Cardiff City Actif 115 / 122 40% 1 27.12.2026 -
George Hirst Stoke City Actif 128 / 130 40% 1 26.12.2026 -
Jacob Greaves Ipswich Town Actif 142 / 133 40% 1 26.12.2026 -
David Zima Slavia Prague Actif 118 / 135 40% 2 25.12.2026 -
Roger François Udinese Actif 135 / 141 40% 1 25.12.2026 -
David Jurásek Slavia Prague Actif 119 / 119 40% 1 21.12.2026 -
Taiwo Awoniyi Coventry City Actif 140 / 139 40% 2 20.12.2026 -
Jovon Makama Norwich City Actif 129 / 124 40% 1 18.12.2026 Plus d'infos
Alfie Doughty Millwall Actif 131 / 126 40% 1 18.12.2026 Plus d'infos
Danijel Šturm Slavia Prague Actif 108 / 107 40% 3 16.12.2026 -
Relebohile Mofokeng Orlando Pirates Actif 121 / 126 40% 1 16.12.2026 -
Zeidane Inoussa Swansea City Actif 119 / 120 40% 1 16.12.2026 -
Erik Prekop Gornik Zabrze Actif 130 / 125 40% 3 15.12.2026 -
Mihailo Ivanović Millwall Actif 128 / 121 40% 1 14.12.2026 -
Jerome Karelse Golden Arrows Actif 98 / 105 40% 1 12.12.2026 -
Leandro Suhr Piast Actif 126 / 119 40% 1 12.12.2026 -
Zian Flemming Ipswich Town Actif 125 / 130 40% 1 11.12.2026 -
Camilo Durán Bloemfontein Celtic Actif 124 / 129 40% 3 10.12.2026 -
Jan Hubocan Ferencvaros Actif 118 / 128 40% 2 08.12.2026 -
Iqraam Rayners Mamelodi Sundowns Actif 153 / 136 40% 1 07.12.2026 Plus d'infos
Max Bird Birmingham Actif 125 / 135 40% 1 07.12.2026 -
Hélio Varela Maccabi Tel Aviv Actif 133 / 113 40% 1 07.12.2026 Plus d'infos
Milan van Ewijk Coventry City Actif 129 / 134 40% 1 07.12.2026 -
Welington Southampton Actif 135 / 127 40% 1 07.12.2026 -
Simone Canestrelli Pisa Actif 134 / 134 40% 1 04.12.2026 -
Rahim Ibrahim Slovan Bratislava Actif 134 / 124 40% 1 03.12.2026 -
Esequiel Barco Spartak Moscow Actif 143 / 139 40% 2 02.12.2026 -
Iván Angulo Orlando City Actif 110 / 133 40% 1 02.12.2026 -
Achraf Bencharki Rapid Wien Actif 124 / 121 40% 1 01.12.2026 -
Matyáš Vojta Sparta Prague Actif 121 / 126 40% 1 01.12.2026 -
Tomáš Chorý Spartak Moscow Actif 132 / 143 40% 2 29.11.2026 -
Magnus Kofod Andersen Sparta Prague Actif 120 / 130 40% 1 27.11.2026 -
Pablo Rodríguez Lech Actif 122 / 118 40% 1 26.11.2026 -
Álex Valle Como Actif 135 / 133 40% 1 26.11.2026 -
Bienvenue Kanakimana Zbrojovka Brno Actif 124 / 116 40% 1 26.11.2026 -
Róbert Polievka MTK Budapest Actif 112 / 108 40% 1 26.11.2026 -
Danil Glebov Dinamo Moscow Actif 129 / 133 40% 1 26.11.2026 -
Haris Tabaković Red Bull Salzburg Actif 126 / 139 40% 1 22.11.2026 -
Marquinhos Spartak Moscow Actif 125 / 129 40% 2 20.11.2026 -
Pedro Henrique Shakhtar Actif 136 / 132 40% 1 20.11.2026 -
Reda Khadra Qarabag Actif 120 / 131 40% 1 19.11.2026 -
Jan Kliment Sigma Olomouc Actif 107 / 109 40% 2 18.11.2026 -
Jan Hladík MFK Ruzomberok Actif 96 / 106 40% 1 18.11.2026 -
Václav Jurečka Banik Ostrava Actif 115 / 116 40% 2 17.11.2026 -
Michal Sadílek Slavia Prague Actif 140 / 127 40% 1 17.11.2026 -
Adrian Dragusin CFR Cluj Actif 150 / 144 40% 1 17.11.2026 -
Lukáš Mašek Slovan Liberec Actif 100 / 115 40% 1 15.11.2026 -
Seedy Jatta Sturm Graz Actif 127 / 118 40% 1 14.11.2026 -
Filip Kubala Banik Ostrava Actif 130 / 127 40% 2 13.11.2026 -
John Mercado Sparta Prague Actif 115 / 126 40% 2 11.11.2026 -
Jiří Boula Banik Ostrava Actif 112 / 128 40% 1 11.11.2026 -
Michal Kohút Banik Ostrava Actif 113 / 122 40% 2 10.11.2026 -
David Da Costa Portland Timbers Actif 149 / 139 40% 2 09.11.2026 -
Petar Stanić Ludogorets Actif 144 / 132 40% 1 09.11.2026 -
Marin Benko Zadar Actif 130 / 125 40% 1 08.11.2026 -
Peter Shalulile Mamelodi Sundowns Actif 126 / 127 40% 2 07.11.2026 -
Luca Langoni New England Revolution Actif 149 / 135 40% 1 07.11.2026 -
Matěj Pulkrab Teplice Actif 97 / 99 40% 2 04.11.2026 -
Liel Abada Charlotte Football Club Actif 150 / 130 40% 2 01.11.2026 -
Tomás Chancalay Minnesota United FC Actif 130 / 119 40% 1 01.11.2026 -
Matej Trusa DAC Dunajska Streda Actif 118 / 118 40% 2 31.10.2026 -
Etiosa Ighodaro Kaizer Chiefs Actif 111 / 103 40% 2 31.10.2026 -
Raimonds Krollis Slovan Liberec Actif 116 / 114 40% 1 30.10.2026 -
Jan Chramosta Jablonec Actif 109 / 116 48% 2 28.10.2026 -
Odin Bjørtuft Bodo/Glimt Actif 154 / 136 40% 1 27.10.2026 -
Toral Bayramov Qarabag Actif 133 / 123 40% 1 27.10.2026 -
Bojan Radulović Huddersfield Town Actif 113 / 120 40% 1 25.10.2026 -
Troy Parrott Betis Actif 144 / 143 40% 1 25.10.2026 -
Martín Ojeda Orlando City Actif 121 / 134 40% 3 24.10.2026 -
Heung-Min Son Los Angeles Football Club Actif 139 / 144 40% 2 24.10.2026 -
Gedson Fernandes Spartak Moscow Actif 135 / 132 40% 2 22.10.2026 -
Andy Irving Sparta Prague Actif 115 / 122 40% 1 22.10.2026 -
Kévin Denkey FC Cincinnati Actif 126 / 118 40% 1 22.10.2026 -
Oleh Ocheretko Shakhtar Actif 137 / 134 40% 1 20.10.2026 -
Matěj Ryneš Sparta Prague Actif 109 / 124 40% 1 19.10.2026 -
Bryan Ramírez FC Cincinnati Actif 116 / 136 40% 1 17.10.2026 -
Elias Achouri San Diego Football Club Actif 130 / 139 40% 1 16.10.2026 -
Sead Hakšabanović Malmo FF Actif 111 / 114 40% 1 16.10.2026 -
Leonardo Campana New England Revolution Actif 110 / 118 40% 1 10.10.2026 -
Tomás Händel Crvena Zvezda Actif 123 / 135 40% 1 10.10.2026 -
Fabian Rieder FC Augsburg Actif 124 / 138 40% 1 08.10.2026 -
Marcus Ingvartsen San Diego Football Club Actif 117 / 132 40% 2 07.10.2026 -
Rui Modesto Vancouver Whitecaps Actif 116 / 113 40% 1 04.10.2026 -
Mojmír Chytil Hajduk Split Actif 130 / 139 40% 1 03.10.2026 -
Tomáš Nemčík Rosenborg Actif 143 / 123 40% 2 01.10.2026 -
Veljko Birmančević Ferencvaros Actif 141 / 127 40% 1 01.10.2026 -
Breel Embolo Atlanta United FC Actif 145 / 134 40% 1 28.09.2026 -
Radek Šiler Podbrezova Actif 101 / 112 40% 1 27.09.2026 -
Bernardo Vital Jagiellonia Actif 133 / 126 40% 1 26.09.2026 -
Tadeo Allende Inter Miami CF Actif 118 / 123 40% 1 26.09.2026 -
David Puškáč Slovacko Actif 125 / 111 40% 1 26.09.2026 -
Mateusz Bogusz Houston Dynamo Actif 144 / 133 40% 1 26.09.2026 -
Wessam Abou Ali Columbus Crew Actif 113 / 131 40% 1 23.09.2026 -
Lukáš Juliš MSK Zilina Actif 115 / 113 40% 1 22.09.2026 -
Alhassan Yusuf New England Revolution Actif 145 / 117 40% 1 22.09.2026 -
Diego Luna Real Salt Lake Actif 130 / 130 40% 1 22.09.2026 -
Matúš Marcin Podbrezova Actif 94 / 103 40% 1 18.09.2026 -
Antoine Griezmann Orlando City Actif 149 / 143 40% 1 18.09.2026 -
Kristian Arnstad AGF Actif 114 / 118 40% 1 18.09.2026 -
Emil Breivik Molde Actif 132 / 122 40% 1 16.09.2026 -
Conrad Wallem Aalborg Actif 109 / 138 40% 1 16.09.2026 -
Alexander Aravena Portland Timbers Actif 111 / 132 40% 1 15.09.2026 -
Kelvin Yeboah Minnesota United FC Actif 142 / 126 40% 1 14.09.2026 -
Frans Krätzig Red Bull Salzburg Actif 128 / 125 40% 1 13.09.2026 -
Nectar Triantis Minnesota United FC Actif 131 / 130 40% 1 12.09.2026 -
Morgan Guilavogui Real Salt Lake Actif 129 / 132 40% 1 10.09.2026 -
Yusuf Bohemians 1905 Actif 126 / 113 40% 1 07.09.2026 -
Stanislav Hofmann Zbrojovka Brno Actif 117 / 118 48% 1 24.08.2026 -
Joel Godoy Sarmiento Actif 125 / 125 40% 1 02.08.2026 -
Sheriff Amuda Shooting Stars Actif 89 / 89 40% 1 02.08.2026 -